sensor_id;sensor_type;location;lat;lon;timestamp;P1;durP1;ratioP1;P2;durP2;ratioP2
75035;SDS011;64247;51.540;5.854;2023-04-24T00:01:47;11.23;;;8.55;;
75035;SDS011;64247;51.540;5.854;2023-04-24T00:03:48;6.85;;;5.13;;
75035;SDS011;64247;51.540;5.854;2023-04-24T00:05:50;11.98;;;6.97;;
75035;SDS011;64247;51.540;5.854;2023-04-24T00:07:51;10.15;;;8.32;;
75035;SDS011;64247;51.540;5.854;2023-04-24T00:09:55;10.93;;;8.68;;
75035;SDS011;64247;51.540;5.854;2023-04-24T00:11:56;14.50;;;8.82;;
75035;SDS011;64247;51.540;5.854;2023-04-24T00:13:57;14.05;;;11.70;;
75035;SDS011;64247;51.540;5.854;2023-04-24T00:15:58;15.30;;;10.30;;
75035;SDS011;64247;51.540;5.854;2023-04-24T00:17:59;16.20;;;10.02;;
75035;SDS011;64247;51.540;5.854;2023-04-24T00:20:01;15.95;;;10.45;;
75035;SDS011;64247;51.540;5.854;2023-04-24T00:22:04;15.00;;;9.65;;
75035;SDS011;64247;51.540;5.854;2023-04-24T00:24:06;13.57;;;10.48;;
75035;SDS011;64247;51.540;5.854;2023-04-24T00:26:09;16.55;;;11.63;;
75035;SDS011;64247;51.540;5.854;2023-04-24T00:28:10;17.40;;;10.30;;
75035;SDS011;64247;51.540;5.854;2023-04-24T00:30:10;14.15;;;9.18;;
75035;SDS011;64247;51.540;5.854;2023-04-24T00:32:12;16.63;;;12.82;;
75035;SDS011;64247;51.540;5.854;2023-04-24T00:34:14;16.98;;;10.80;;
75035;SDS011;64247;51.540;5.854;2023-04-24T00:36:15;20.33;;;13.73;;
75035;SDS011;64247;51.540;5.854;2023-04-24T00:38:16;13.63;;;10.48;;
75035;SDS011;64247;51.540;5.854;2023-04-24T00:40:17;16.85;;;11.43;;
75035;SDS011;64247;51.540;5.854;2023-04-24T00:42:18;16.23;;;10.95;;
75035;SDS011;64247;51.540;5.854;2023-04-24T00:44:19;18.30;;;12.45;;
75035;SDS011;64247;51.540;5.854;2023-04-24T00:46:20;14.82;;;9.68;;
75035;SDS011;64247;51.540;5.854;2023-04-24T00:48:23;13.60;;;10.18;;
75035;SDS011;64247;51.540;5.854;2023-04-24T00:50:25;15.88;;;13.52;;
75035;SDS011;64247;51.540;5.854;2023-04-24T00:52:26;15.85;;;11.60;;
75035;SDS011;64247;51.540;5.854;2023-04-24T00:54:28;17.55;;;12.25;;
75035;SDS011;64247;51.540;5.854;2023-04-24T00:56:29;15.00;;;12.60;;
75035;SDS011;64247;51.540;5.854;2023-04-24T00:58:31;15.90;;;12.68;;
75035;SDS011;64247;51.540;5.854;2023-04-24T01:00:32;14.85;;;9.23;;
75035;SDS011;64247;51.540;5.854;2023-04-24T01:02:33;18.00;;;13.48;;
75035;SDS011;64247;51.540;5.854;2023-04-24T01:04:34;15.00;;;10.32;;
75035;SDS011;64247;51.540;5.854;2023-04-24T01:06:36;16.73;;;10.95;;
75035;SDS011;64247;51.540;5.854;2023-04-24T01:08:43;17.88;;;12.15;;
75035;SDS011;64247;51.540;5.854;2023-04-24T01:10:48;20.70;;;12.10;;
75035;SDS011;64247;51.540;5.854;2023-04-24T01:12:52;20.75;;;11.93;;
75035;SDS011;64247;51.540;5.854;2023-04-24T01:14:54;16.88;;;10.75;;
75035;SDS011;64247;51.540;5.854;2023-04-24T01:16:55;21.83;;;16.75;;
75035;SDS011;64247;51.540;5.854;2023-04-24T01:18:57;19.73;;;12.10;;
75035;SDS011;64247;51.540;5.854;2023-04-24T01:20:58;21.48;;;16.02;;
75035;SDS011;64247;51.540;5.854;2023-04-24T01:23:05;18.58;;;14.45;;
75035;SDS011;64247;51.540;5.854;2023-04-24T01:25:07;21.10;;;13.55;;
75035;SDS011;64247;51.540;5.854;2023-04-24T01:27:09;23.90;;;14.02;;
75035;SDS011;64247;51.540;5.854;2023-04-24T01:29:11;23.95;;;13.63;;
75035;SDS011;64247;51.540;5.854;2023-04-24T01:31:12;20.58;;;13.63;;
75035;SDS011;64247;51.540;5.854;2023-04-24T01:33:13;21.92;;;14.43;;
75035;SDS011;64247;51.540;5.854;2023-04-24T01:35:15;19.48;;;12.43;;
75035;SDS011;64247;51.540;5.854;2023-04-24T01:37:16;25.05;;;14.93;;
75035;SDS011;64247;51.540;5.854;2023-04-24T01:39:17;20.88;;;14.05;;
75035;SDS011;64247;51.540;5.854;2023-04-24T01:41:20;24.17;;;16.80;;
75035;SDS011;64247;51.540;5.854;2023-04-24T01:43:22;22.58;;;13.63;;
75035;SDS011;64247;51.540;5.854;2023-04-24T01:45:24;23.73;;;18.30;;
75035;SDS011;64247;51.540;5.854;2023-04-24T01:47:25;22.50;;;14.50;;
75035;SDS011;64247;51.540;5.854;2023-04-24T01:49:26;23.90;;;14.38;;
75035;SDS011;64247;51.540;5.854;2023-04-24T01:51:27;26.05;;;14.95;;
75035;SDS011;64247;51.540;5.854;2023-04-24T01:53:30;19.25;;;14.10;;
75035;SDS011;64247;51.540;5.854;2023-04-24T01:55:31;27.70;;;16.75;;
75035;SDS011;64247;51.540;5.854;2023-04-24T01:57:32;25.60;;;15.63;;
75035;SDS011;64247;51.540;5.854;2023-04-24T01:59:34;23.92;;;14.73;;
75035;SDS011;64247;51.540;5.854;2023-04-24T02:01:37;25.13;;;16.08;;
75035;SDS011;64247;51.540;5.854;2023-04-24T02:03:39;19.63;;;10.95;;
75035;SDS011;64247;51.540;5.854;2023-04-24T02:05:39;28.55;;;17.63;;
75035;SDS011;64247;51.540;5.854;2023-04-24T02:07:40;27.20;;;17.80;;
75035;SDS011;64247;51.540;5.854;2023-04-24T02:09:43;23.73;;;15.73;;
75035;SDS011;64247;51.540;5.854;2023-04-24T02:11:44;26.35;;;17.35;;
75035;SDS011;64247;51.540;5.854;2023-04-24T02:13:45;26.50;;;16.38;;
75035;SDS011;64247;51.540;5.854;2023-04-24T02:15:45;28.25;;;17.98;;
75035;SDS011;64247;51.540;5.854;2023-04-24T02:17:46;29.35;;;18.50;;
75035;SDS011;64247;51.540;5.854;2023-04-24T02:19:47;32.22;;;15.48;;
75035;SDS011;64247;51.540;5.854;2023-04-24T02:21:48;23.45;;;13.85;;
75035;SDS011;64247;51.540;5.854;2023-04-24T02:23:49;26.90;;;16.35;;
75035;SDS011;64247;51.540;5.854;2023-04-24T02:25:50;25.50;;;13.85;;
75035;SDS011;64247;51.540;5.854;2023-04-24T02:27:53;32.67;;;22.23;;
75035;SDS011;64247;51.540;5.854;2023-04-24T02:29:54;31.27;;;20.60;;
75035;SDS011;64247;51.540;5.854;2023-04-24T02:31:55;31.75;;;19.33;;
75035;SDS011;64247;51.540;5.854;2023-04-24T02:33:56;31.77;;;23.33;;
75035;SDS011;64247;51.540;5.854;2023-04-24T02:35:57;25.00;;;15.43;;
75035;SDS011;64247;51.540;5.854;2023-04-24T02:37:58;26.05;;;17.35;;
75035;SDS011;64247;51.540;5.854;2023-04-24T02:39:58;30.17;;;16.23;;
75035;SDS011;64247;51.540;5.854;2023-04-24T02:41:59;31.17;;;20.75;;
75035;SDS011;64247;51.540;5.854;2023-04-24T02:44:01;24.17;;;14.38;;
75035;SDS011;64247;51.540;5.854;2023-04-24T02:46:02;25.80;;;16.02;;
75035;SDS011;64247;51.540;5.854;2023-04-24T02:48:03;23.80;;;14.95;;
75035;SDS011;64247;51.540;5.854;2023-04-24T02:50:04;25.90;;;15.13;;
75035;SDS011;64247;51.540;5.854;2023-04-24T02:52:07;26.75;;;19.33;;
75035;SDS011;64247;51.540;5.854;2023-04-24T02:54:08;27.73;;;19.00;;
75035;SDS011;64247;51.540;5.854;2023-04-24T02:56:10;27.10;;;15.23;;
75035;SDS011;64247;51.540;5.854;2023-04-24T02:58:12;30.48;;;19.77;;
75035;SDS011;64247;51.540;5.854;2023-04-24T03:00:13;29.13;;;17.08;;
75035;SDS011;64247;51.540;5.854;2023-04-24T03:02:14;27.45;;;14.90;;
75035;SDS011;64247;51.540;5.854;2023-04-24T03:04:16;27.40;;;16.27;;
75035;SDS011;64247;51.540;5.854;2023-04-24T03:06:20;29.48;;;16.92;;
75035;SDS011;64247;51.540;5.854;2023-04-24T03:08:21;27.30;;;15.57;;
75035;SDS011;64247;51.540;5.854;2023-04-24T03:10:22;31.90;;;15.05;;
75035;SDS011;64247;51.540;5.854;2023-04-24T03:12:23;26.70;;;14.63;;
75035;SDS011;64247;51.540;5.854;2023-04-24T03:14:24;29.88;;;15.50;;
75035;SDS011;64247;51.540;5.854;2023-04-24T03:16:25;29.35;;;22.67;;
75035;SDS011;64247;51.540;5.854;2023-04-24T03:18:29;27.33;;;16.92;;
75035;SDS011;64247;51.540;5.854;2023-04-24T03:20:30;26.38;;;15.98;;
75035;SDS011;64247;51.540;5.854;2023-04-24T03:22:32;32.92;;;18.60;;
75035;SDS011;64247;51.540;5.854;2023-04-24T03:24:34;27.58;;;17.00;;
75035;SDS011;64247;51.540;5.854;2023-04-24T03:26:35;23.35;;;14.20;;
75035;SDS011;64247;51.540;5.854;2023-04-24T03:28:50;23.20;;;14.57;;
75035;SDS011;64247;51.540;5.854;2023-04-24T03:30:51;29.15;;;18.58;;
75035;SDS011;64247;51.540;5.854;2023-04-24T03:32:53;25.83;;;17.25;;
75035;SDS011;64247;51.540;5.854;2023-04-24T03:34:59;25.45;;;15.77;;
75035;SDS011;64247;51.540;5.854;2023-04-24T03:37:00;24.85;;;14.98;;
75035;SDS011;64247;51.540;5.854;2023-04-24T03:39:02;19.95;;;12.32;;
75035;SDS011;64247;51.540;5.854;2023-04-24T03:41:07;23.35;;;13.90;;
75035;SDS011;64247;51.540;5.854;2023-04-24T03:43:18;21.40;;;14.48;;
75035;SDS011;64247;51.540;5.854;2023-04-24T03:45:20;19.73;;;13.80;;
75035;SDS011;64247;51.540;5.854;2023-04-24T03:47:23;21.90;;;15.40;;
75035;SDS011;64247;51.540;5.854;2023-04-24T03:49:26;23.23;;;12.48;;
75035;SDS011;64247;51.540;5.854;2023-04-24T03:51:27;21.80;;;14.13;;
75035;SDS011;64247;51.540;5.854;2023-04-24T03:53:35;26.85;;;14.65;;
75035;SDS011;64247;51.540;5.854;2023-04-24T03:55:36;19.67;;;14.13;;
75035;SDS011;64247;51.540;5.854;2023-04-24T03:57:37;13.27;;;8.73;;
75035;SDS011;64247;51.540;5.854;2023-04-24T03:59:51;21.05;;;14.48;;
75035;SDS011;64247;51.540;5.854;2023-04-24T04:01:53;20.30;;;13.82;;
75035;SDS011;64247;51.540;5.854;2023-04-24T04:03:54;24.83;;;14.77;;
75035;SDS011;64247;51.540;5.854;2023-04-24T04:05:58;21.02;;;14.00;;
75035;SDS011;64247;51.540;5.854;2023-04-24T04:08:00;24.63;;;14.75;;
75035;SDS011;64247;51.540;5.854;2023-04-24T04:10:01;23.33;;;12.77;;
75035;SDS011;64247;51.540;5.854;2023-04-24T04:12:02;18.50;;;12.77;;
75035;SDS011;64247;51.540;5.854;2023-04-24T04:14:03;20.35;;;11.52;;
75035;SDS011;64247;51.540;5.854;2023-04-24T04:16:07;18.85;;;13.55;;
75035;SDS011;64247;51.540;5.854;2023-04-24T04:18:09;18.48;;;12.65;;
75035;SDS011;64247;51.540;5.854;2023-04-24T04:20:10;16.55;;;13.32;;
75035;SDS011;64247;51.540;5.854;2023-04-24T04:22:13;17.63;;;13.45;;
75035;SDS011;64247;51.540;5.854;2023-04-24T04:24:20;17.48;;;11.18;;
75035;SDS011;64247;51.540;5.854;2023-04-24T04:26:22;21.20;;;12.85;;
75035;SDS011;64247;51.540;5.854;2023-04-24T04:28:38;17.75;;;12.77;;
75035;SDS011;64247;51.540;5.854;2023-04-24T04:30:39;16.05;;;14.32;;
75035;SDS011;64247;51.540;5.854;2023-04-24T04:32:41;18.65;;;13.32;;
75035;SDS011;64247;51.540;5.854;2023-04-24T04:34:42;14.60;;;10.45;;
75035;SDS011;64247;51.540;5.854;2023-04-24T04:36:46;15.93;;;11.20;;
75035;SDS011;64247;51.540;5.854;2023-04-24T04:39:07;15.68;;;10.88;;
75035;SDS011;64247;51.540;5.854;2023-04-24T04:41:19;18.55;;;15.38;;
75035;SDS011;64247;51.540;5.854;2023-04-24T04:43:20;14.93;;;8.55;;
75035;SDS011;64247;51.540;5.854;2023-04-24T04:45:25;17.35;;;13.70;;
75035;SDS011;64247;51.540;5.854;2023-04-24T04:47:49;16.02;;;11.60;;
75035;SDS011;64247;51.540;5.854;2023-04-24T04:49:50;16.65;;;12.43;;
75035;SDS011;64247;51.540;5.854;2023-04-24T04:52:00;16.65;;;14.80;;
75035;SDS011;64247;51.540;5.854;2023-04-24T04:54:02;18.55;;;13.95;;
75035;SDS011;64247;51.540;5.854;2023-04-24T04:56:03;17.08;;;12.27;;
75035;SDS011;64247;51.540;5.854;2023-04-24T04:58:20;13.43;;;9.02;;
75035;SDS011;64247;51.540;5.854;2023-04-24T05:00:25;15.05;;;10.60;;
75035;SDS011;64247;51.540;5.854;2023-04-24T05:02:27;19.48;;;11.60;;
75035;SDS011;64247;51.540;5.854;2023-04-24T05:04:29;17.23;;;11.48;;
75035;SDS011;64247;51.540;5.854;2023-04-24T05:06:30;15.82;;;10.50;;
75035;SDS011;64247;51.540;5.854;2023-04-24T05:08:31;18.52;;;11.10;;
75035;SDS011;64247;51.540;5.854;2023-04-24T05:10:33;17.45;;;12.30;;
75035;SDS011;64247;51.540;5.854;2023-04-24T05:12:35;19.20;;;14.90;;
75035;SDS011;64247;51.540;5.854;2023-04-24T05:14:37;16.98;;;12.57;;
75035;SDS011;64247;51.540;5.854;2023-04-24T05:16:38;17.35;;;12.45;;
75035;SDS011;64247;51.540;5.854;2023-04-24T05:18:41;18.52;;;11.40;;
75035;SDS011;64247;51.540;5.854;2023-04-24T05:20:45;17.02;;;15.25;;
75035;SDS011;64247;51.540;5.854;2023-04-24T05:22:46;20.15;;;14.80;;
75035;SDS011;64247;51.540;5.854;2023-04-24T05:24:48;15.52;;;11.38;;
75035;SDS011;64247;51.540;5.854;2023-04-24T05:27:05;17.15;;;10.98;;
75035;SDS011;64247;51.540;5.854;2023-04-24T05:29:13;17.70;;;10.88;;
75035;SDS011;64247;51.540;5.854;2023-04-24T05:31:14;18.15;;;13.07;;
75035;SDS011;64247;51.540;5.854;2023-04-24T05:33:14;16.30;;;11.20;;
75035;SDS011;64247;51.540;5.854;2023-04-24T05:35:15;14.63;;;9.38;;
75035;SDS011;64247;51.540;5.854;2023-04-24T05:37:16;11.32;;;8.45;;
75035;SDS011;64247;51.540;5.854;2023-04-24T05:39:17;13.52;;;8.85;;
75035;SDS011;64247;51.540;5.854;2023-04-24T05:41:18;15.13;;;12.25;;
75035;SDS011;64247;51.540;5.854;2023-04-24T05:43:19;12.02;;;8.70;;
75035;SDS011;64247;51.540;5.854;2023-04-24T05:45:20;10.32;;;7.78;;
75035;SDS011;64247;51.540;5.854;2023-04-24T05:47:21;13.05;;;9.60;;
75035;SDS011;64247;51.540;5.854;2023-04-24T05:49:23;12.48;;;9.35;;
75035;SDS011;64247;51.540;5.854;2023-04-24T05:51:24;10.65;;;8.95;;
75035;SDS011;64247;51.540;5.854;2023-04-24T05:53:26;11.40;;;9.05;;
75035;SDS011;64247;51.540;5.854;2023-04-24T05:55:27;10.38;;;6.63;;
75035;SDS011;64247;51.540;5.854;2023-04-24T05:57:28;11.55;;;8.82;;
75035;SDS011;64247;51.540;5.854;2023-04-24T05:59:36;12.95;;;8.13;;
75035;SDS011;64247;51.540;5.854;2023-04-24T06:01:41;10.27;;;6.90;;
75035;SDS011;64247;51.540;5.854;2023-04-24T06:03:48;12.05;;;8.18;;
75035;SDS011;64247;51.540;5.854;2023-04-24T06:05:52;9.40;;;7.63;;
75035;SDS011;64247;51.540;5.854;2023-04-24T06:07:55;4.10;;;3.55;;
75035;SDS011;64247;51.540;5.854;2023-04-24T06:09:59;4.45;;;3.17;;
75035;SDS011;64247;51.540;5.854;2023-04-24T06:12:00;3.97;;;2.95;;
75035;SDS011;64247;51.540;5.854;2023-04-24T06:14:11;2.80;;;2.42;;
75035;SDS011;64247;51.540;5.854;2023-04-24T06:16:32;2.22;;;2.03;;
75035;SDS011;64247;51.540;5.854;2023-04-24T06:18:40;4.75;;;2.45;;
75035;SDS011;64247;51.540;5.854;2023-04-24T06:20:41;2.60;;;1.65;;
75035;SDS011;64247;51.540;5.854;2023-04-24T06:22:43;2.08;;;1.50;;
75035;SDS011;64247;51.540;5.854;2023-04-24T06:24:44;3.38;;;2.53;;
75035;SDS011;64247;51.540;5.854;2023-04-24T06:26:45;1.90;;;1.67;;
75035;SDS011;64247;51.540;5.854;2023-04-24T06:28:46;2.10;;;1.20;;
75035;SDS011;64247;51.540;5.854;2023-04-24T06:30:47;1.63;;;1.52;;
75035;SDS011;64247;51.540;5.854;2023-04-24T06:32:48;2.45;;;1.40;;
75035;SDS011;64247;51.540;5.854;2023-04-24T06:34:50;3.90;;;2.45;;
75035;SDS011;64247;51.540;5.854;2023-04-24T06:36:53;4.22;;;1.95;;
75035;SDS011;64247;51.540;5.854;2023-04-24T06:38:55;1.73;;;1.45;;
75035;SDS011;64247;51.540;5.854;2023-04-24T06:40:56;1.60;;;1.50;;
75035;SDS011;64247;51.540;5.854;2023-04-24T06:42:57;2.20;;;2.00;;
75035;SDS011;64247;51.540;5.854;2023-04-24T06:45:00;1.88;;;1.30;;
75035;SDS011;64247;51.540;5.854;2023-04-24T06:47:01;2.75;;;2.10;;
75035;SDS011;64247;51.540;5.854;2023-04-24T06:49:02;2.15;;;1.90;;
75035;SDS011;64247;51.540;5.854;2023-04-24T06:51:03;1.48;;;1.38;;
75035;SDS011;64247;51.540;5.854;2023-04-24T06:53:03;1.48;;;1.13;;
75035;SDS011;64247;51.540;5.854;2023-04-24T06:55:04;2.80;;;2.35;;
75035;SDS011;64247;51.540;5.854;2023-04-24T06:57:06;3.67;;;2.42;;
75035;SDS011;64247;51.540;5.854;2023-04-24T06:59:07;2.60;;;2.40;;
75035;SDS011;64247;51.540;5.854;2023-04-24T07:01:08;1.98;;;1.73;;
75035;SDS011;64247;51.540;5.854;2023-04-24T07:03:08;2.25;;;1.90;;
75035;SDS011;64247;51.540;5.854;2023-04-24T07:05:10;2.22;;;1.85;;
75035;SDS011;64247;51.540;5.854;2023-04-24T07:07:11;2.35;;;2.13;;
75035;SDS011;64247;51.540;5.854;2023-04-24T07:09:14;1.50;;;1.40;;
75035;SDS011;64247;51.540;5.854;2023-04-24T07:11:18;2.88;;;1.70;;
75035;SDS011;64247;51.540;5.854;2023-04-24T07:13:20;1.73;;;1.63;;
75035;SDS011;64247;51.540;5.854;2023-04-24T07:15:21;3.30;;;1.17;;
75035;SDS011;64247;51.540;5.854;2023-04-24T07:17:22;1.55;;;1.30;;
75035;SDS011;64247;51.540;5.854;2023-04-24T07:19:23;1.30;;;1.20;;
75035;SDS011;64247;51.540;5.854;2023-04-24T07:21:24;1.58;;;1.05;;
75035;SDS011;64247;51.540;5.854;2023-04-24T07:23:25;1.98;;;1.83;;
75035;SDS011;64247;51.540;5.854;2023-04-24T07:25:26;1.98;;;1.73;;
75035;SDS011;64247;51.540;5.854;2023-04-24T07:27:27;1.90;;;1.70;;
75035;SDS011;64247;51.540;5.854;2023-04-24T07:29:28;1.92;;;1.33;;
75035;SDS011;64247;51.540;5.854;2023-04-24T07:31:29;1.13;;;1.02;;
75035;SDS011;64247;51.540;5.854;2023-04-24T07:33:31;1.40;;;0.90;;
75035;SDS011;64247;51.540;5.854;2023-04-24T07:35:32;1.73;;;1.10;;
75035;SDS011;64247;51.540;5.854;2023-04-24T07:37:33;2.45;;;2.10;;
75035;SDS011;64247;51.540;5.854;2023-04-24T07:39:34;2.85;;;2.35;;
75035;SDS011;64247;51.540;5.854;2023-04-24T07:41:35;3.50;;;3.20;;
75035;SDS011;64247;51.540;5.854;2023-04-24T07:43:36;4.88;;;4.07;;
75035;SDS011;64247;51.540;5.854;2023-04-24T07:45:37;6.25;;;4.72;;
75035;SDS011;64247;51.540;5.854;2023-04-24T07:47:37;9.68;;;6.82;;
75035;SDS011;64247;51.540;5.854;2023-04-24T07:49:40;13.00;;;10.05;;
75035;SDS011;64247;51.540;5.854;2023-04-24T07:51:44;12.45;;;7.40;;
75035;SDS011;64247;51.540;5.854;2023-04-24T07:53:45;11.50;;;7.10;;
75035;SDS011;64247;51.540;5.854;2023-04-24T07:55:46;12.90;;;7.38;;
75035;SDS011;64247;51.540;5.854;2023-04-24T07:59:48;10.80;;;6.65;;
75035;SDS011;64247;51.540;5.854;2023-04-24T08:03:50;13.20;;;9.88;;
75035;SDS011;64247;51.540;5.854;2023-04-24T08:05:51;15.18;;;8.45;;
75035;SDS011;64247;51.540;5.854;2023-04-24T08:07:52;15.52;;;9.10;;
75035;SDS011;64247;51.540;5.854;2023-04-24T08:09:53;12.52;;;8.00;;
75035;SDS011;64247;51.540;5.854;2023-04-24T08:11:54;7.75;;;5.57;;
75035;SDS011;64247;51.540;5.854;2023-04-24T08:13:55;12.82;;;8.27;;
75035;SDS011;64247;51.540;5.854;2023-04-24T08:15:56;9.30;;;6.43;;
75035;SDS011;64247;51.540;5.854;2023-04-24T08:17:57;14.10;;;7.18;;
75035;SDS011;64247;51.540;5.854;2023-04-24T08:19:58;11.30;;;7.38;;
75035;SDS011;64247;51.540;5.854;2023-04-24T08:22:01;12.65;;;6.65;;
75035;SDS011;64247;51.540;5.854;2023-04-24T08:24:04;15.45;;;6.85;;
75035;SDS011;64247;51.540;5.854;2023-04-24T08:26:07;12.43;;;6.18;;
75035;SDS011;64247;51.540;5.854;2023-04-24T08:28:09;11.70;;;7.53;;
75035;SDS011;64247;51.540;5.854;2023-04-24T08:30:11;10.23;;;6.07;;
75035;SDS011;64247;51.540;5.854;2023-04-24T08:32:12;12.65;;;8.30;;
75035;SDS011;64247;51.540;5.854;2023-04-24T08:34:13;16.95;;;8.73;;
75035;SDS011;64247;51.540;5.854;2023-04-24T08:36:13;15.20;;;7.88;;
75035;SDS011;64247;51.540;5.854;2023-04-24T08:38:15;14.38;;;5.80;;
75035;SDS011;64247;51.540;5.854;2023-04-24T08:40:16;10.63;;;6.03;;
75035;SDS011;64247;51.540;5.854;2023-04-24T08:42:18;12.82;;;7.03;;
75035;SDS011;64247;51.540;5.854;2023-04-24T08:44:20;12.63;;;6.60;;
75035;SDS011;64247;51.540;5.854;2023-04-24T08:46:21;17.80;;;7.55;;
75035;SDS011;64247;51.540;5.854;2023-04-24T08:48:24;16.17;;;6.40;;
75035;SDS011;64247;51.540;5.854;2023-04-24T08:50:26;14.27;;;6.50;;
75035;SDS011;64247;51.540;5.854;2023-04-24T08:52:30;11.45;;;6.60;;
75035;SDS011;64247;51.540;5.854;2023-04-24T08:54:31;14.40;;;6.25;;
75035;SDS011;64247;51.540;5.854;2023-04-24T08:56:36;9.30;;;4.75;;
75035;SDS011;64247;51.540;5.854;2023-04-24T08:58:40;7.53;;;4.55;;
75035;SDS011;64247;51.540;5.854;2023-04-24T09:00:42;10.95;;;5.35;;
75035;SDS011;64247;51.540;5.854;2023-04-24T09:02:48;10.10;;;4.82;;
75035;SDS011;64247;51.540;5.854;2023-04-24T09:04:50;9.85;;;4.10;;
75035;SDS011;64247;51.540;5.854;2023-04-24T09:06:55;10.95;;;4.15;;
75035;SDS011;64247;51.540;5.854;2023-04-24T09:08:59;9.98;;;4.60;;
75035;SDS011;64247;51.540;5.854;2023-04-24T09:11:03;5.82;;;2.80;;
75035;SDS011;64247;51.540;5.854;2023-04-24T09:13:04;9.80;;;3.22;;
75035;SDS011;64247;51.540;5.854;2023-04-24T09:15:06;8.65;;;3.88;;
75035;SDS011;64247;51.540;5.854;2023-04-24T09:17:08;12.98;;;3.30;;
75035;SDS011;64247;51.540;5.854;2023-04-24T09:19:09;9.40;;;3.90;;
75035;SDS011;64247;51.540;5.854;2023-04-24T09:23:11;9.20;;;4.20;;
75035;SDS011;64247;51.540;5.854;2023-04-24T09:25:18;11.05;;;3.70;;
75035;SDS011;64247;51.540;5.854;2023-04-24T09:27:19;7.82;;;3.40;;
75035;SDS011;64247;51.540;5.854;2023-04-24T09:29:24;9.77;;;4.07;;
75035;SDS011;64247;51.540;5.854;2023-04-24T09:31:26;11.57;;;3.55;;
75035;SDS011;64247;51.540;5.854;2023-04-24T09:33:29;12.35;;;4.72;;
75035;SDS011;64247;51.540;5.854;2023-04-24T09:35:31;10.50;;;3.38;;
75035;SDS011;64247;51.540;5.854;2023-04-24T09:37:34;13.27;;;4.68;;
75035;SDS011;64247;51.540;5.854;2023-04-24T09:39:37;15.13;;;4.85;;
75035;SDS011;64247;51.540;5.854;2023-04-24T09:41:45;8.98;;;3.83;;
75035;SDS011;64247;51.540;5.854;2023-04-24T09:44:11;9.20;;;4.10;;
75035;SDS011;64247;51.540;5.854;2023-04-24T09:46:34;8.48;;;3.45;;
75035;SDS011;64247;51.540;5.854;2023-04-24T09:48:36;9.32;;;3.42;;
75035;SDS011;64247;51.540;5.854;2023-04-24T09:50:38;9.73;;;3.17;;
75035;SDS011;64247;51.540;5.854;2023-04-24T09:52:45;4.35;;;2.67;;
75035;SDS011;64247;51.540;5.854;2023-04-24T09:54:57;9.52;;;3.22;;
75035;SDS011;64247;51.540;5.854;2023-04-24T09:56:58;12.00;;;4.53;;
75035;SDS011;64247;51.540;5.854;2023-04-24T09:59:06;9.35;;;3.30;;
75035;SDS011;64247;51.540;5.854;2023-04-24T10:01:08;8.05;;;3.20;;
75035;SDS011;64247;51.540;5.854;2023-04-24T10:03:09;10.63;;;3.97;;
75035;SDS011;64247;51.540;5.854;2023-04-24T10:05:11;6.55;;;3.63;;
75035;SDS011;64247;51.540;5.854;2023-04-24T10:07:12;8.85;;;3.42;;
75035;SDS011;64247;51.540;5.854;2023-04-24T10:09:19;4.32;;;2.40;;
75035;SDS011;64247;51.540;5.854;2023-04-24T10:11:23;5.82;;;2.42;;
75035;SDS011;64247;51.540;5.854;2023-04-24T10:13:27;10.32;;;2.58;;
75035;SDS011;64247;51.540;5.854;2023-04-24T10:15:28;11.45;;;3.35;;
75035;SDS011;64247;51.540;5.854;2023-04-24T10:17:30;9.40;;;3.72;;
75035;SDS011;64247;51.540;5.854;2023-04-24T10:19:32;10.15;;;3.95;;
75035;SDS011;64247;51.540;5.854;2023-04-24T10:21:36;7.20;;;3.30;;
75035;SDS011;64247;51.540;5.854;2023-04-24T10:23:42;9.02;;;3.42;;
75035;SDS011;64247;51.540;5.854;2023-04-24T10:25:43;6.40;;;2.67;;
75035;SDS011;64247;51.540;5.854;2023-04-24T10:27:45;3.90;;;2.95;;
75035;SDS011;64247;51.540;5.854;2023-04-24T10:29:48;7.00;;;3.30;;
75035;SDS011;64247;51.540;5.854;2023-04-24T10:31:53;5.20;;;2.28;;
75035;SDS011;64247;51.540;5.854;2023-04-24T10:33:54;7.75;;;3.60;;
75035;SDS011;64247;51.540;5.854;2023-04-24T10:35:57;5.13;;;2.72;;
75035;SDS011;64247;51.540;5.854;2023-04-24T10:38:05;7.20;;;2.97;;
75035;SDS011;64247;51.540;5.854;2023-04-24T10:40:09;8.43;;;2.47;;
75035;SDS011;64247;51.540;5.854;2023-04-24T10:42:15;5.82;;;2.40;;
75035;SDS011;64247;51.540;5.854;2023-04-24T10:44:17;5.15;;;2.03;;
75035;SDS011;64247;51.540;5.854;2023-04-24T10:46:21;5.70;;;1.83;;
75035;SDS011;64247;51.540;5.854;2023-04-24T10:48:26;9.98;;;2.92;;
75035;SDS011;64247;51.540;5.854;2023-04-24T10:50:41;6.15;;;2.17;;
75035;SDS011;64247;51.540;5.854;2023-04-24T10:53:05;6.78;;;2.72;;
75035;SDS011;64247;51.540;5.854;2023-04-24T10:55:14;4.32;;;2.83;;
75035;SDS011;64247;51.540;5.854;2023-04-24T10:59:39;5.30;;;2.33;;
75035;SDS011;64247;51.540;5.854;2023-04-24T11:01:41;4.70;;;2.33;;
75035;SDS011;64247;51.540;5.854;2023-04-24T11:04:02;4.78;;;1.95;;
75035;SDS011;64247;51.540;5.854;2023-04-24T11:06:05;4.40;;;1.73;;
75035;SDS011;64247;51.540;5.854;2023-04-24T11:08:12;4.18;;;1.90;;
75035;SDS011;64247;51.540;5.854;2023-04-24T11:10:30;2.95;;;2.08;;
75035;SDS011;64247;51.540;5.854;2023-04-24T11:12:34;3.13;;;1.80;;
75035;SDS011;64247;51.540;5.854;2023-04-24T11:17:29;2.33;;;1.55;;
75035;SDS011;64247;51.540;5.854;2023-04-24T11:20:00;2.30;;;1.13;;
75035;SDS011;64247;51.540;5.854;2023-04-24T11:22:16;1.83;;;1.42;;
75035;SDS011;64247;51.540;5.854;2023-04-24T11:27:20;2.85;;;1.70;;
75035;SDS011;64247;51.540;5.854;2023-04-24T11:29:22;1.70;;;1.60;;
75035;SDS011;64247;51.540;5.854;2023-04-24T11:31:40;5.25;;;1.80;;
75035;SDS011;64247;51.540;5.854;2023-04-24T11:33:42;3.38;;;1.25;;
75035;SDS011;64247;51.540;5.854;2023-04-24T11:35:43;3.78;;;1.40;;
75035;SDS011;64247;51.540;5.854;2023-04-24T11:37:45;2.35;;;1.50;;
75035;SDS011;64247;51.540;5.854;2023-04-24T11:39:52;4.45;;;1.50;;
75035;SDS011;64247;51.540;5.854;2023-04-24T11:42:01;2.70;;;1.38;;
75035;SDS011;64247;51.540;5.854;2023-04-24T11:44:05;2.75;;;1.15;;
75035;SDS011;64247;51.540;5.854;2023-04-24T11:46:08;3.67;;;1.23;;
75035;SDS011;64247;51.540;5.854;2023-04-24T11:48:09;5.97;;;1.35;;
75035;SDS011;64247;51.540;5.854;2023-04-24T11:50:16;6.78;;;1.50;;
75035;SDS011;64247;51.540;5.854;2023-04-24T11:52:20;3.10;;;1.30;;
75035;SDS011;64247;51.540;5.854;2023-04-24T11:54:20;1.58;;;1.27;;
75035;SDS011;64247;51.540;5.854;2023-04-24T11:56:22;2.33;;;1.20;;
75035;SDS011;64247;51.540;5.854;2023-04-24T11:58:24;2.95;;;1.17;;
75035;SDS011;64247;51.540;5.854;2023-04-24T12:00:31;2.63;;;0.85;;
75035;SDS011;64247;51.540;5.854;2023-04-24T12:02:36;2.47;;;1.05;;
75035;SDS011;64247;51.540;5.854;2023-04-24T12:04:40;2.00;;;0.75;;
75035;SDS011;64247;51.540;5.854;2023-04-24T12:09:21;2.53;;;0.73;;
75035;SDS011;64247;51.540;5.854;2023-04-24T12:11:22;2.15;;;0.90;;
75035;SDS011;64247;51.540;5.854;2023-04-24T12:13:24;2.35;;;1.20;;
75035;SDS011;64247;51.540;5.854;2023-04-24T12:15:26;4.45;;;0.90;;
75035;SDS011;64247;51.540;5.854;2023-04-24T12:17:29;2.10;;;1.30;;
75035;SDS011;64247;51.540;5.854;2023-04-24T12:19:33;2.40;;;1.00;;
75035;SDS011;64247;51.540;5.854;2023-04-24T12:21:34;2.53;;;1.15;;
75035;SDS011;64247;51.540;5.854;2023-04-24T12:23:35;2.88;;;1.15;;
75035;SDS011;64247;51.540;5.854;2023-04-24T12:25:38;1.58;;;0.90;;
75035;SDS011;64247;51.540;5.854;2023-04-24T12:27:39;4.65;;;1.27;;